Time;durP1;ratioP1;P1;durP2;ratioP2;P2;SDS_P1;SDS_P2;PMS_P1;PMS_P2;Temp;Humidity;BMP_temperature;BMP_pressure;BME280_temperature;BME280_humidity;BME280_pressure;Samples;Min_cycle;Max_cycle;Signal;HPM_P1;HPM_P2
2022/09/22 00:01:40;;;;;;;1.65;0.90;;;8.00;99.90;;;;;;6178740;23;20008;-89
2022/09/22 00:04:09;;;;;;;3.20;1.25;;;8.00;99.90;;;;;;6179411;23;20076;-89
2022/09/22 00:06:38;;;;;;;2.28;1.23;;;7.90;99.90;;;;;;6178007;23;20449;-87
2022/09/22 00:09:09;;;;;;;3.88;1.20;;;7.90;99.90;;;;;;6179083;23;19997;-87
2022/09/22 00:11:39;;;;;;;2.63;1.75;;;7.90;99.90;;;;;;6178663;23;20426;-87
2022/09/22 00:14:22;;;;;;;2.80;1.15;;;7.90;99.90;;;;;;6178538;23;20005;-88
2022/09/22 00:16:52;;;;;;;2.85;1.08;;;7.90;99.90;;;;;;6178904;23;20009;-87
2022/09/22 00:19:24;;;;;;;3.35;1.05;;;7.90;99.90;;;;;;6178748;23;20036;-88
2022/09/22 00:21:50;;;;;;;3.97;1.23;;;7.90;99.90;;;;;;6177993;23;20016;-86
2022/09/22 00:24:18;;;;;;;4.03;0.93;;;7.80;99.90;;;;;;6178446;23;20008;-88
2022/09/22 00:26:43;;;;;;;2.40;1.15;;;7.80;99.90;;;;;;6179102;23;20072;-87
2022/09/22 00:29:10;;;;;;;0.90;0.80;;;7.80;99.90;;;;;;6178487;23;20060;-86
2022/09/22 00:31:38;;;;;;;2.13;1.00;;;7.80;99.90;;;;;;6177569;23;20013;-87
2022/09/22 00:34:05;;;;;;;1.90;0.85;;;7.80;99.90;;;;;;6179050;23;20001;-86
2022/09/22 00:36:31;;;;;;;1.52;0.90;;;7.80;99.90;;;;;;6177590;23;20337;-85
2022/09/22 00:38:57;;;;;;;1.52;1.02;;;7.80;99.90;;;;;;6178285;23;20032;-88
2022/09/22 00:41:34;;;;;;;2.35;1.42;;;7.80;99.90;;;;;;6177562;23;20058;-88
2022/09/22 00:44:45;;;;;;;3.38;1.25;;;7.80;99.90;;;;;;6178155;23;20017;-87
2022/09/22 00:47:29;;;;;;;1.83;1.20;;;7.80;99.90;;;;;;6178612;23;20005;-85
2022/09/22 00:50:01;;;;;;;3.83;1.23;;;7.80;99.90;;;;;;6176540;23;20300;-88
2022/09/22 00:52:37;;;;;;;2.22;1.20;;;7.70;99.90;;;;;;6178388;23;20295;-86
2022/09/22 00:55:10;;;;;;;4.30;1.42;;;7.70;99.90;;;;;;6177669;23;20009;-86
2022/09/22 00:57:39;;;;;;;1.30;1.00;;;7.70;99.90;;;;;;6178404;23;20001;-88
2022/09/22 01:00:07;;;;;;;2.67;1.02;;;7.70;99.90;;;;;;6177370;23;20005;-87
2022/09/22 01:02:33;;;;;;;1.85;1.30;;;7.70;99.90;;;;;;6178802;23;20001;-87
2022/09/22 01:04:59;;;;;;;2.13;1.10;;;7.70;99.90;;;;;;6175055;23;20330;-86
2022/09/22 01:07:28;;;;;;;4.00;1.30;;;7.60;99.90;;;;;;6178304;23;20005;-86
2022/09/22 01:09:54;;;;;;;2.20;1.10;;;7.60;99.90;;;;;;6177744;23;20002;-87
2022/09/22 01:12:21;;;;;;;2.40;1.20;;;7.60;99.90;;;;;;6178363;23;20001;-85
2022/09/22 01:14:53;;;;;;;6.03;1.52;;;7.60;99.90;;;;;;6178521;23;20088;-87
2022/09/22 01:17:48;;;;;;;1.20;0.98;;;7.60;99.90;;;;;;6177752;23;20012;-85
2022/09/22 01:20:39;;;;;;;3.13;1.40;;;7.60;99.90;;;;;;6177729;23;19994;-88
2022/09/22 01:23:33;;;;;;;2.08;1.23;;;7.60;99.90;;;;;;6177967;23;20081;-83
2022/09/22 01:26:14;;;;;;;2.65;1.15;;;7.60;99.90;;;;;;6177729;23;20009;-86
2022/09/22 01:28:48;;;;;;;1.60;1.05;;;7.60;99.90;;;;;;6178421;23;20052;-88
2022/09/22 01:31:39;;;;;;;0.90;0.90;;;7.60;99.90;;;;;;6177056;23;20005;-87
2022/09/22 01:34:28;;;;;;;4.05;1.27;;;7.50;99.90;;;;;;6178128;23;20008;-83
2022/09/22 01:37:18;;;;;;;3.90;1.17;;;7.50;99.90;;;;;;6177476;23;20013;-88
2022/09/22 01:39:50;;;;;;;1.95;1.10;;;7.50;99.90;;;;;;6178534;23;20005;-87
2022/09/22 01:42:38;;;;;;;1.38;0.95;;;7.50;99.90;;;;;;6176623;23;20563;-86
2022/09/22 01:45:09;;;;;;;5.35;1.08;;;7.50;99.90;;;;;;6176901;23;20008;-87
2022/09/22 01:47:40;;;;;;;3.10;0.95;;;7.60;99.90;;;;;;6178334;23;20002;-89
2022/09/22 01:50:12;;;;;;;2.30;1.00;;;7.50;99.90;;;;;;6177309;23;20081;-85
2022/09/22 01:52:40;;;;;;;0.98;0.95;;;7.50;99.90;;;;;;6177777;23;20016;-87
2022/09/22 01:55:17;;;;;;;2.67;1.40;;;7.50;99.90;;;;;;6178307;23;20359;-88
2022/09/22 01:57:50;;;;;;;2.45;0.85;;;7.50;99.90;;;;;;6177797;23;20378;-88
2022/09/22 02:00:16;;;;;;;3.53;1.42;;;7.50;99.90;;;;;;6177005;23;20005;-86
2022/09/22 02:03:21;;;;;;;2.92;1.10;;;7.50;99.90;;;;;;6177362;23;20377;-88
2022/09/22 02:05:55;;;;;;;2.45;1.38;;;7.40;99.90;;;;;;6176905;23;20496;-87
2022/09/22 02:08:41;;;;;;;2.50;0.90;;;7.40;99.90;;;;;;6178699;23;20001;-86
2022/09/22 02:11:15;;;;;;;2.80;1.60;;;7.40;99.90;;;;;;6176310;23;20001;-86
2022/09/22 02:13:43;;;;;;;1.77;1.23;;;7.40;99.90;;;;;;6177823;23;20036;-87
2022/09/22 02:16:10;;;;;;;2.65;1.15;;;7.30;99.90;;;;;;6175774;23;20066;-87
2022/09/22 02:18:41;;;;;;;2.05;1.02;;;7.30;99.90;;;;;;6177715;23;20220;-85
2022/09/22 02:21:07;;;;;;;6.30;1.20;;;7.30;99.90;;;;;;6177201;23;20006;-87
2022/09/22 02:23:34;;;;;;;6.15;1.20;;;7.30;99.90;;;;;;6177573;23;20005;-88
2022/09/22 02:26:00;;;;;;;7.55;1.60;;;7.20;99.90;;;;;;6177028;23;20045;-86
2022/09/22 02:28:30;;;;;;;3.33;1.48;;;7.20;99.90;;;;;;6177898;23;20013;-86
2022/09/22 02:30:57;;;;;;;4.60;1.70;;;7.10;99.90;;;;;;6175764;23;20012;-87
2022/09/22 02:33:25;;;;;;;2.38;1.00;;;7.10;99.90;;;;;;6177909;23;20004;-87
2022/09/22 02:36:00;;;;;;;3.40;1.30;;;7.10;99.90;;;;;;6176005;23;20434;-86
2022/09/22 02:38:39;;;;;;;3.83;1.25;;;7.10;99.90;;;;;;6177036;23;20005;-86
2022/09/22 02:41:30;;;;;;;3.22;1.35;;;7.10;99.90;;;;;;6178120;23;19997;-85
2022/09/22 02:44:05;;;;;;;6.40;1.58;;;7.10;99.90;;;;;;6176596;23;20052;-86
2022/09/22 02:46:44;;;;;;;4.88;1.60;;;7.10;99.90;;;;;;6177026;23;20061;-87
2022/09/22 02:49:14;;;;;;;2.45;1.38;;;7.10;99.90;;;;;;6177885;23;20001;-86
2022/09/22 02:51:40;;;;;;;3.10;1.40;;;7.20;99.90;;;;;;6177176;23;20436;-87
2022/09/22 02:54:06;;;;;;;2.03;1.00;;;7.10;99.90;;;;;;6178423;23;20015;-86
2022/09/22 02:56:32;;;;;;;3.97;1.45;;;7.10;99.90;;;;;;6175409;23;20017;-87
2022/09/22 02:58:58;;;;;;;5.38;1.42;;;7.10;99.90;;;;;;6178045;23;20001;-88
2022/09/22 03:01:23;;;;;;;1.58;1.05;;;7.20;99.90;;;;;;6176054;23;20012;-85
2022/09/22 03:03:49;;;;;;;1.40;1.30;;;7.10;99.90;;;;;;6176726;23;20073;-86
2022/09/22 03:06:14;;;;;;;3.47;1.48;;;7.10;99.90;;;;;;6175970;23;20008;-86
2022/09/22 03:08:40;;;;;;;3.42;1.42;;;7.10;99.90;;;;;;6177463;23;20013;-85
2022/09/22 03:11:05;;;;;;;1.90;1.13;;;7.10;99.90;;;;;;6177190;23;20000;-86
2022/09/22 03:13:31;;;;;;;2.38;1.30;;;7.10;99.90;;;;;;6177203;23;20070;-87
2022/09/22 03:15:57;;;;;;;1.35;1.10;;;7.10;99.90;;;;;;6176739;23;20438;-86
2022/09/22 03:18:22;;;;;;;1.45;1.20;;;7.10;99.90;;;;;;6176427;23;19998;-87
2022/09/22 03:20:48;;;;;;;2.42;1.60;;;7.00;99.90;;;;;;6176484;23;20483;-86
2022/09/22 03:23:13;;;;;;;1.67;1.45;;;7.00;99.90;;;;;;6177655;23;20019;-85
2022/09/22 03:25:39;;;;;;;2.13;1.30;;;7.00;99.90;;;;;;6175796;23;20005;-88
2022/09/22 03:28:05;;;;;;;3.25;1.55;;;7.00;99.90;;;;;;6177273;23;20064;-84
2022/09/22 03:30:31;;;;;;;4.10;1.38;;;7.00;99.90;;;;;;6175579;23;20009;-88
2022/09/22 03:32:57;;;;;;;4.10;1.33;;;6.90;99.90;;;;;;6177291;23;20005;-86
2022/09/22 03:35:22;;;;;;;1.52;1.15;;;6.90;99.90;;;;;;6176888;23;20050;-86
2022/09/22 03:37:48;;;;;;;6.03;1.25;;;7.00;99.90;;;;;;6178416;23;20012;-88
2022/09/22 03:40:17;;;;;;;3.53;1.60;;;6.90;99.90;;;;;;6175733;23;20046;-87
2022/09/22 03:42:43;;;;;;;4.90;1.52;;;6.90;99.90;;;;;;6175385;23;20311;-84
2022/09/22 03:45:09;;;;;;;6.15;1.40;;;6.90;99.90;;;;;;6177475;23;20054;-88
2022/09/22 03:47:37;;;;;;;3.22;1.70;;;6.90;99.90;;;;;;6177974;23;20422;-87
2022/09/22 03:50:03;;;;;;;5.10;1.70;;;6.90;99.90;;;;;;6174301;23;20080;-86
2022/09/22 03:52:30;;;;;;;1.42;1.33;;;6.90;99.90;;;;;;6172794;23;20012;-87
2022/09/22 03:54:55;;;;;;;2.03;1.35;;;6.90;99.90;;;;;;6178234;23;20308;-87
2022/09/22 03:57:21;;;;;;;2.38;1.98;;;7.00;99.90;;;;;;6176615;23;20330;-87
2022/09/22 03:59:47;;;;;;;1.08;1.02;;;7.00;99.90;;;;;;6177859;23;20001;-87
2022/09/22 04:02:12;;;;;;;4.18;2.35;;;7.00;99.90;;;;;;6176352;23;20051;-85
2022/09/22 04:04:38;;;;;;;1.92;1.35;;;7.00;99.90;;;;;;6176129;23;20001;-87
2022/09/22 04:07:04;;;;;;;4.38;1.75;;;7.00;99.90;;;;;;6175739;23;20012;-87
2022/09/22 04:09:30;;;;;;;6.28;1.27;;;7.00;99.90;;;;;;6177826;23;20491;-86
2022/09/22 04:11:59;;;;;;;7.45;1.70;;;6.90;99.90;;;;;;6177250;23;20378;-86
2022/09/22 04:14:24;;;;;;;2.80;1.40;;;7.00;99.90;;;;;;6177206;23;20051;-85
2022/09/22 04:16:50;;;;;;;1.58;1.10;;;7.00;99.90;;;;;;6176252;23;20033;-87
2022/09/22 04:19:17;;;;;;;4.40;1.60;;;7.10;99.90;;;;;;6178669;23;20396;-87
2022/09/22 04:21:44;;;;;;;3.03;1.30;;;7.10;99.90;;;;;;6176909;23;20008;-86
2022/09/22 04:24:10;;;;;;;1.90;1.33;;;7.10;99.90;;;;;;6177768;23;20307;-87
2022/09/22 04:26:37;;;;;;;2.03;1.15;;;7.20;99.90;;;;;;6172968;23;20001;-88
2022/09/22 04:29:03;;;;;;;4.45;1.45;;;7.20;99.90;;;;;;6177259;23;20008;-87
2022/09/22 04:31:28;;;;;;;1.48;1.33;;;7.30;99.90;;;;;;6175358;23;20083;-86
2022/09/22 04:33:54;;;;;;;3.40;1.83;;;7.30;99.90;;;;;;6179067;23;20449;-88
2022/09/22 04:36:20;;;;;;;6.20;1.55;;;7.30;99.90;;;;;;6177444;23;20013;-86
2022/09/22 04:38:45;;;;;;;2.92;1.67;;;7.40;99.90;;;;;;6177073;23;20062;-87
2022/09/22 04:41:14;;;;;;;1.55;1.40;;;7.40;99.90;;;;;;6175023;23;20044;-86
2022/09/22 04:43:40;;;;;;;2.78;1.30;;;7.40;99.90;;;;;;6176591;23;20051;-87
2022/09/22 04:46:06;;;;;;;3.83;1.58;;;7.40;99.90;;;;;;6176493;23;20031;-89
2022/09/22 04:48:32;;;;;;;5.88;1.75;;;7.60;99.90;;;;;;6179035;23;20002;-87
2022/09/22 04:50:57;;;;;;;3.90;1.67;;;7.60;99.90;;;;;;6176312;23;20029;-87
2022/09/22 04:53:23;;;;;;;2.92;1.33;;;7.70;99.90;;;;;;6176422;23;20005;-87
2022/09/22 04:55:49;;;;;;;3.33;1.50;;;7.70;99.90;;;;;;6177229;23;20009;-87
2022/09/22 04:58:14;;;;;;;5.68;1.63;;;7.70;99.90;;;;;;6177616;23;20373;-88
2022/09/22 05:00:40;;;;;;;1.88;1.70;;;7.70;99.90;;;;;;6177521;23;20086;-88
2022/09/22 05:03:11;;;;;;;3.03;1.50;;;7.70;99.90;;;;;;6179181;23;20001;-88
2022/09/22 05:05:37;;;;;;;4.20;1.52;;;7.70;99.90;;;;;;6176810;23;20005;-82
2022/09/22 05:08:04;;;;;;;1.92;1.33;;;7.80;99.90;;;;;;6176585;23;20029;-87
2022/09/22 05:10:31;;;;;;;5.15;1.95;;;7.80;99.90;;;;;;6178425;23;20426;-88
2022/09/22 05:12:57;;;;;;;2.20;1.30;;;7.80;99.90;;;;;;6176128;23;20065;-86
2022/09/22 05:15:24;;;;;;;4.03;1.98;;;7.80;99.90;;;;;;6174308;23;20020;-86
2022/09/22 05:17:51;;;;;;;2.28;2.08;;;7.80;99.90;;;;;;6174003;23;19997;-87
2022/09/22 05:20:19;;;;;;;5.85;2.50;;;7.80;99.90;;;;;;6175982;23;20011;-87
2022/09/22 05:22:46;;;;;;;5.53;1.77;;;7.80;99.90;;;;;;6177076;23;20001;-88
2022/09/22 05:25:14;;;;;;;3.72;1.77;;;7.80;99.90;;;;;;6177515;23;20001;-87
2022/09/22 05:27:47;;;;;;;4.90;1.85;;;7.80;99.90;;;;;;6177590;23;20096;-87
2022/09/22 05:30:13;;;;;;;2.13;1.70;;;7.90;99.90;;;;;;6177716;23;20084;-86
2022/09/22 05:32:43;;;;;;;7.53;1.80;;;7.90;99.90;;;;;;6176095;23;20520;-88
2022/09/22 05:35:09;;;;;;;1.92;1.55;;;7.90;99.90;;;;;;6177401;23;20009;-86
2022/09/22 05:37:35;;;;;;;2.75;1.75;;;8.00;99.90;;;;;;6177375;23;20372;-87
2022/09/22 05:40:01;;;;;;;2.55;1.73;;;8.00;99.90;;;;;;6178884;23;19997;-85
2022/09/22 05:42:26;;;;;;;4.45;1.83;;;8.00;99.90;;;;;;6177052;23;20037;-87
2022/09/22 05:44:52;;;;;;;6.88;1.65;;;8.10;99.90;;;;;;6178901;23;20076;-88
2022/09/22 05:47:17;;;;;;;6.40;1.67;;;8.10;99.90;;;;;;6176879;23;19997;-89
2022/09/22 05:49:43;;;;;;;2.08;1.60;;;8.10;99.90;;;;;;6178573;23;20024;-86
2022/09/22 05:52:09;;;;;;;3.60;1.65;;;8.10;99.90;;;;;;6175099;23;20072;-89
2022/09/22 05:54:34;;;;;;;1.92;1.48;;;8.10;99.90;;;;;;6177358;23;20005;-88
2022/09/22 05:57:00;;;;;;;1.60;1.50;;;8.20;99.90;;;;;;6176953;23;20008;-88
2022/09/22 05:59:25;;;;;;;6.00;2.30;;;8.20;99.90;;;;;;6177972;23;20441;-88
2022/09/22 06:01:51;;;;;;;2.70;1.60;;;8.20;99.90;;;;;;6174706;23;19997;-86
2022/09/22 06:04:18;;;;;;;1.80;1.65;;;8.10;99.90;;;;;;6177921;23;20623;-87
2022/09/22 06:06:44;;;;;;;1.70;1.60;;;8.30;99.90;;;;;;6176708;23;20461;-90
2022/09/22 06:09:11;;;;;;;3.45;2.13;;;8.30;99.90;;;;;;6177012;23;19997;-87
2022/09/22 06:11:37;;;;;;;3.55;2.00;;;8.30;99.90;;;;;;6176296;23;20411;-88
2022/09/22 06:14:02;;;;;;;6.95;2.15;;;8.30;99.90;;;;;;6178637;23;20050;-90
2022/09/22 06:16:30;;;;;;;6.35;2.80;;;8.30;99.90;;;;;;6177753;23;20028;-90
2022/09/22 06:18:55;;;;;;;9.93;3.90;;;8.40;99.90;;;;;;6178678;23;20013;-88
2022/09/22 06:21:21;;;;;;;6.68;2.38;;;8.40;99.90;;;;;;6177660;23;20025;-89
2022/09/22 06:23:47;;;;;;;3.40;2.05;;;8.40;99.90;;;;;;6178633;23;20006;-89
2022/09/22 06:26:12;;;;;;;5.00;2.20;;;8.50;99.90;;;;;;6177940;23;20027;-89
2022/09/22 06:28:38;;;;;;;4.60;2.35;;;8.50;99.90;;;;;;6178584;23;20028;-91
2022/09/22 06:31:04;;;;;;;8.13;2.60;;;8.60;99.90;;;;;;6177395;23;20095;-90
2022/09/22 06:33:29;;;;;;;6.45;2.10;;;8.60;99.90;;;;;;6178127;23;19997;-88
2022/09/22 06:36:00;;;;;;;2.10;1.77;;;8.70;99.90;;;;;;6178204;23;20028;-90
2022/09/22 06:38:26;;;;;;;2.72;2.00;;;8.70;99.90;;;;;;6178240;23;20334;-88
2022/09/22 06:40:57;;;;;;;6.63;2.00;;;8.80;99.90;;;;;;6178227;23;20025;-90
2022/09/22 06:43:22;;;;;;;2.88;1.60;;;8.80;99.90;;;;;;6178805;23;20021;-90
2022/09/22 06:45:50;;;;;;;3.33;2.08;;;8.90;99.90;;;;;;6178661;23;20753;-89
2022/09/22 06:48:16;;;;;;;7.93;2.63;;;8.90;99.90;;;;;;6177924;23;20005;-88
2022/09/22 06:50:50;;;;;;;3.20;2.05;;;9.00;99.90;;;;;;6178223;23;20011;-90
2022/09/22 06:53:17;;;;;;;3.00;2.28;;;9.00;99.90;;;;;;6177498;23;20070;-90
2022/09/22 06:55:44;;;;;;;3.83;2.58;;;9.10;99.90;;;;;;6177910;23;20009;-90
2022/09/22 06:58:11;;;;;;;7.63;2.88;;;9.20;99.90;;;;;;6177417;23;20013;-89
2022/09/22 07:00:36;;;;;;;4.20;2.95;;;9.20;99.90;;;;;;6178361;23;20114;-89
2022/09/22 07:03:12;;;;;;;7.32;3.33;;;9.20;99.90;;;;;;6177589;23;20035;-90
2022/09/22 07:05:37;;;;;;;;;;;9.30;99.90;;;;;;6179787;23;20434;-90
2022/09/22 07:08:07;;;;;;;5.53;3.72;;;9.30;99.90;;;;;;6178809;22;19953;-91
2022/09/22 07:10:36;;;;;;;5.30;3.70;;;9.30;99.90;;;;;;6179792;23;19997;-90
2022/09/22 07:13:04;;;;;;;9.27;4.10;;;9.30;99.90;;;;;;6178303;23;20001;-90
2022/09/22 07:15:31;;;;;;;8.98;4.20;;;9.40;99.90;;;;;;6180042;23;20033;-91
2022/09/22 07:17:56;;;;;;;5.15;3.33;;;9.40;99.90;;;;;;6178655;23;20081;-89
2022/09/22 07:20:22;;;;;;;8.73;4.82;;;9.40;99.90;;;;;;6179396;23;20084;-89
2022/09/22 07:22:48;;;;;;;8.30;3.92;;;9.40;99.90;;;;;;6178391;23;20016;-89
2022/09/22 07:25:15;;;;;;;6.38;3.65;;;9.40;99.90;;;;;;6179836;23;20077;-92
2022/09/22 07:27:41;;;;;;;8.30;5.15;;;9.40;99.90;;;;;;6178693;23;20027;-90
2022/09/22 07:30:09;;;;;;;4.75;3.97;;;9.40;99.90;;;;;;6179647;23;20494;-90
2022/09/22 07:32:34;;;;;;;7.35;4.35;;;9.50;99.90;;;;;;6178304;23;20430;-90
2022/09/22 07:35:01;;;;;;;4.75;3.47;;;9.50;99.90;;;;;;6179885;23;20295;-89
2022/09/22 07:37:31;;;;;;;5.82;3.38;;;9.50;99.90;;;;;;6178839;23;20376;-91
2022/09/22 07:39:59;;;;;;;8.43;3.65;;;9.60;99.90;;;;;;6179829;23;20001;-91
2022/09/22 07:42:25;;;;;;;11.93;3.88;;;9.60;99.90;;;;;;6178270;23;20048;-90
2022/09/22 07:50:19;;;;;;;11.80;3.00;;;9.90;99.90;;;;;;6179603;23;20009;-91
2022/09/22 07:52:52;;;;;;;8.48;2.75;;;10.00;99.90;;;;;;6178831;23;20330;-94
2022/09/22 07:55:23;;;;;;;18.70;3.33;;;10.10;99.90;;;;;;6179814;23;20013;-91
2022/09/22 07:58:07;;;;;;;7.97;2.85;;;10.20;99.90;;;;;;6179457;23;20058;-91
2022/09/22 08:00:35;;;;;;;14.32;4.20;;;10.30;99.90;;;;;;6180027;23;20008;-92
2022/09/22 08:03:00;;;;;;;9.13;3.50;;;10.50;99.90;;;;;;6178643;23;20426;-91
2022/09/22 08:05:27;;;;;;;9.93;4.30;;;10.60;99.90;;;;;;6179811;23;20008;-92
2022/09/22 08:07:57;;;;;;;9.10;4.60;;;10.70;99.90;;;;;;6178757;23;20618;-93
2022/09/22 08:10:23;;;;;;;12.07;4.97;;;10.80;99.90;;;;;;6180160;23;20025;-90
2022/09/22 08:12:53;;;;;;;8.40;4.65;;;10.90;99.90;;;;;;6178765;23;20001;-92
2022/09/22 08:15:21;;;;;;;10.20;5.28;;;11.00;99.90;;;;;;6179252;23;20009;-93
2022/09/22 08:17:48;;;;;;;14.30;3.78;;;11.00;99.90;;;;;;6179324;23;20025;-92
2022/09/22 08:20:13;;;;;;;11.30;3.75;;;11.10;99.90;;;;;;6175687;23;20005;-92
2022/09/22 08:22:40;;;;;;;7.75;3.08;;;11.10;99.90;;;;;;6175328;23;20089;-90
2022/09/22 08:25:06;;;;;;;11.07;3.40;;;11.20;99.90;;;;;;6176491;23;20190;-88
2022/09/22 08:27:35;;;;;;;14.25;3.30;;;11.20;99.90;;;;;;6176720;23;20013;-91
2022/09/22 08:30:01;;;;;;;7.60;3.05;;;11.30;99.90;;;;;;6179202;23;20077;-93
2022/09/22 08:32:29;;;;;;;9.52;2.70;;;11.40;99.90;;;;;;6178127;23;20032;-90
2022/09/22 08:34:56;;;;;;;7.45;2.90;;;11.40;99.90;;;;;;6176125;23;20008;-93
2022/09/22 08:37:23;;;;;;;14.77;3.42;;;11.50;99.90;;;;;;6178063;23;20437;-92
2022/09/22 08:39:48;;;;;;;11.35;3.13;;;11.60;99.90;;;;;;6180120;23;19997;-91
2022/09/22 08:42:19;;;;;;;13.68;3.03;;;11.60;99.90;;;;;;6178485;23;20278;-93
2022/09/22 08:45:11;;;;;;;12.00;3.40;;;11.60;99.90;;;;;;6179641;23;20427;-92
2022/09/22 08:53:50;;;;;;;7.43;2.25;;;11.70;99.90;;;;;;6173161;23;20047;-93
2022/09/22 08:56:31;;;;;;;13.23;2.42;;;11.80;99.90;;;;;;6178365;23;20432;-92
2022/09/22 08:59:21;;;;;;;10.05;2.38;;;11.90;99.90;;;;;;6180222;23;20005;-94
2022/09/22 09:02:06;;;;;;;11.10;3.08;;;12.00;99.90;;;;;;6178895;23;20290;-94
2022/09/22 09:04:40;;;;;;;10.40;2.58;;;12.10;99.90;;;;;;6180276;23;20004;-94
2022/09/22 09:07:22;;;;;;;8.90;2.55;;;12.10;99.90;;;;;;6179104;23;20422;-91
2022/09/22 09:10:20;;;;;;;3.88;2.60;;;12.20;99.90;;;;;;6179954;23;20114;-94
2022/09/22 09:13:11;;;;;;;17.20;3.63;;;12.20;99.90;;;;;;6178946;23;20042;-93
2022/09/22 09:16:14;;;;;;;10.48;2.58;;;12.30;99.90;;;;;;6187583;22;20005;-89
2022/09/22 09:18:44;;;;;;;12.07;2.63;;;12.40;99.90;;;;;;6178825;23;20005;-92
2022/09/22 09:21:13;;;;;;;11.55;2.90;;;12.50;99.90;;;;;;6179637;23;20457;-92
2022/09/22 09:23:50;;;;;;;3.53;2.10;;;12.60;99.90;;;;;;6178960;23;20002;-90
2022/09/22 09:26:17;;;;;;;17.48;2.58;;;12.50;99.90;;;;;;6172459;23;20312;-94
2022/09/22 09:28:48;;;;;;;12.23;2.85;;;12.50;99.90;;;;;;6174966;23;20001;-94
2022/09/22 09:31:40;;;;;;;8.95;2.75;;;12.50;99.90;;;;;;6176678;23;19998;-90
2022/09/22 09:34:17;;;;;;;6.45;2.50;;;12.60;99.90;;;;;;6179403;23;20012;-92
2022/09/22 09:36:51;;;;;;;7.38;2.25;;;12.70;99.90;;;;;;6178129;23;20016;-92
2022/09/22 09:39:29;;;;;;;7.50;1.98;;;12.70;99.90;;;;;;6179164;23;20058;-93
2022/09/22 09:41:56;;;;;;;5.82;2.17;;;12.70;99.90;;;;;;6176817;23;20016;-94
2022/09/22 09:44:29;;;;;;;3.72;1.88;;;12.70;99.90;;;;;;6178521;23;20422;-89
2022/09/22 09:47:26;;;;;;;3.20;1.60;;;12.70;99.90;;;;;;6178271;23;20009;-94
2022/09/22 09:49:53;;;;;;;4.30;1.98;;;12.60;99.90;;;;;;6179636;23;20013;-93
2022/09/22 09:52:20;;;;;;;6.10;2.30;;;12.50;99.90;;;;;;6179030;23;20012;-94
2022/09/22 09:54:46;;;;;;;6.70;2.22;;;12.40;99.90;;;;;;6180672;23;20438;-94
2022/09/22 09:57:20;;;;;;;4.68;1.90;;;12.40;99.90;;;;;;6178018;23;20001;-92
2022/09/22 10:03:03;;;;;;;6.53;2.08;;;12.40;99.90;;;;;;6115832;23;20002;-93
2022/09/22 10:05:30;;;;;;;3.15;1.35;;;12.40;99.90;;;;;;6172310;23;20005;-93
2022/09/22 10:08:01;;;;;;;7.85;1.48;;;12.50;99.90;;;;;;6177980;23;20009;-92
2022/09/22 10:10:36;;;;;;;3.13;1.88;;;12.60;99.90;;;;;;6179062;23;20360;-93
2022/09/22 10:13:04;;;;;;;3.95;1.20;;;12.70;99.90;;;;;;6178196;23;20001;-91
2022/09/22 10:15:35;;;;;;;2.40;1.20;;;12.80;99.90;;;;;;6179176;23;20062;-94
2022/09/22 10:18:02;;;;;;;12.32;3.25;;;12.90;99.90;;;;;;6177982;23;20332;-92
2022/09/22 10:20:32;;;;;;;5.68;1.20;;;13.10;99.90;;;;;;6177886;22;20008;-93
2022/09/22 10:23:21;;;;;;;3.55;1.60;;;13.20;99.90;;;;;;6177172;23;20005;-95
2022/09/22 10:25:49;;;;;;;1.17;0.82;;;13.20;99.90;;;;;;6179192;23;20076;-93
2022/09/22 10:28:17;;;;;;;2.47;1.30;;;13.30;99.90;;;;;;6175651;23;20001;-92
2022/09/22 10:30:56;;;;;;;2.45;1.15;;;13.40;99.90;;;;;;6177440;23;20039;-92
2022/09/22 10:33:22;;;;;;;1.85;1.27;;;13.50;99.90;;;;;;6177048;23;20062;-88
2022/09/22 10:36:09;;;;;;;6.68;1.52;;;13.60;99.90;;;;;;6178204;23;20422;-92
2022/09/22 10:38:38;;;;;;;3.88;1.20;;;13.70;99.90;;;;;;6177995;23;20485;-92
2022/09/22 10:41:33;;;;;;;1.80;1.00;;;13.80;99.90;;;;;;6176827;23;20051;-92
2022/09/22 10:44:19;;;;;;;1.92;1.10;;;13.70;99.90;;;;;;6178585;23;20036;-92
2022/09/22 10:46:56;;;;;;;;;;;13.70;99.90;;;;;;6181031;23;20001;-93
2022/09/22 10:49:57;;;;;;;6.10;1.20;;;13.60;99.90;;;;;;6180168;23;19928;-88
2022/09/22 10:52:43;;;;;;;1.92;1.10;;;13.60;99.90;;;;;;6177068;23;20307;-92
2022/09/22 10:55:20;;;;;;;2.20;1.17;;;13.50;99.90;;;;;;6178448;23;20009;-91
2022/09/22 10:58:07;;;;;;;1.27;0.93;;;13.50;99.90;;;;;;6175492;23;20426;-93
2022/09/22 11:00:34;;;;;;;1.80;1.30;;;13.40;99.90;;;;;;6178442;23;20009;-92
2022/09/22 11:03:27;;;;;;;3.20;1.33;;;13.40;99.90;;;;;;6178411;23;20067;-92
2022/09/22 11:12:34;;;;;;;10.80;1.60;;;13.30;99.90;;;;;;6178476;23;20016;-93
2022/09/22 11:15:21;;;;;;;9.90;1.05;;;13.30;99.90;;;;;;6180537;23;20006;-92
2022/09/22 11:18:10;;;;;;;1.70;1.30;;;13.30;99.90;;;;;;6178270;23;20012;-93
2022/09/22 11:20:43;;;;;;;3.28;1.02;;;13.30;99.90;;;;;;6180466;23;20008;-91
2022/09/22 11:23:22;;;;;;;1.30;0.90;;;13.30;99.90;;;;;;6178506;23;20001;-92
2022/09/22 11:26:18;;;;;;;0.80;0.80;;;13.30;99.90;;;;;;6180280;23;19997;-94
2022/09/22 11:29:22;;;;;;;1.80;0.93;;;13.30;99.90;;;;;;6176897;23;20023;-93
2022/09/22 11:31:52;;;;;;;2.42;0.80;;;13.30;99.90;;;;;;6180201;23;20483;-93
2022/09/22 11:34:35;;;;;;;0.85;0.85;;;13.20;99.90;;;;;;6177460;23;20426;-91
2022/09/22 11:37:25;;;;;;;1.58;1.00;;;13.20;99.90;;;;;;6175755;23;20012;-90
2022/09/22 11:40:02;;;;;;;1.55;0.70;;;13.20;99.90;;;;;;6178696;23;19999;-93
2022/09/22 11:42:52;;;;;;;1.95;1.08;;;13.30;99.90;;;;;;6178917;23;20086;-92
2022/09/22 11:45:53;;;;;;;4.13;2.03;;;13.30;99.90;;;;;;6179034;23;20071;-93
2022/09/22 11:48:47;;;;;;;4.57;1.98;;;13.40;99.90;;;;;;6240158;22;20004;-90
2022/09/22 11:51:41;;;;;;;3.17;1.48;;;13.40;99.90;;;;;;6180113;23;20060;-92
2022/09/22 11:54:18;;;;;;;3.72;1.27;;;13.40;99.90;;;;;;6178514;23;20005;-90
2022/09/22 11:56:43;;;;;;;2.67;1.10;;;13.40;99.90;;;;;;6178657;23;20005;-93
2022/09/22 11:59:25;;;;;;;3.38;1.67;;;13.50;99.90;;;;;;6177173;23;20001;-92
2022/09/22 12:01:53;;;;;;;3.53;2.33;;;13.50;99.90;;;;;;6179726;23;20001;-93
2022/09/22 12:04:40;;;;;;;2.80;1.90;;;13.60;99.90;;;;;;6177277;23;20087;-92
2022/09/22 12:07:13;;;;;;;2.95;1.50;;;13.60;99.90;;;;;;6179248;23;20005;-89
2022/09/22 12:09:46;;;;;;;1.90;0.88;;;13.60;99.90;;;;;;6179719;23;19997;-92
2022/09/22 12:12:17;;;;;;;2.70;1.27;;;13.60;99.90;;;;;;6178298;23;20002;-93
2022/09/22 12:14:44;;;;;;;8.38;1.30;;;13.60;99.90;;;;;;6180035;23;20005;-95
2022/09/22 12:17:26;;;;;;;6.15;1.20;;;13.70;99.90;;;;;;6179263;23;20009;-93
2022/09/22 12:20:00;;;;;;;1.15;0.95;;;13.80;99.90;;;;;;6179841;23;20339;-92
2022/09/22 12:22:36;;;;;;;1.77;1.10;;;14.00;99.90;;;;;;6179303;23;20329;-94
2022/09/22 12:25:02;;;;;;;1.55;0.90;;;14.30;99.90;;;;;;6179482;23;20058;-93
2022/09/22 12:27:29;;;;;;;1.90;0.93;;;14.50;99.90;;;;;;6178674;23;20076;-94
2022/09/22 12:30:01;;;;;;;1.13;0.80;;;14.70;99.90;;;;;;6178342;23;20448;-92
2022/09/22 12:32:34;;;;;;;1.17;0.82;;;14.90;99.90;;;;;;6178525;23;20330;-92
2022/09/22 12:35:00;;;;;;;3.13;1.63;;;15.00;99.90;;;;;;6179613;23;20001;-92
2022/09/22 12:37:32;;;;;;;2.38;1.42;;;15.00;99.90;;;;;;6177502;23;20027;-92
2022/09/22 12:40:13;;;;;;;2.63;1.17;;;15.10;99.90;;;;;;6178993;23;20011;-93
2022/09/22 12:42:40;;;;;;;3.00;1.08;;;15.20;99.90;;;;;;6178358;23;20014;-90
2022/09/22 12:45:24;;;;;;;3.42;2.72;;;15.40;99.90;;;;;;6178581;23;20005;-92
2022/09/22 12:47:53;;;;;;;2.58;1.20;;;15.40;99.90;;;;;;6176207;23;20074;-90
2022/09/22 12:50:21;;;;;;;1.10;1.00;;;15.50;99.90;;;;;;6172304;23;19997;-91
2022/09/22 12:52:48;;;;;;;5.00;0.95;;;15.50;99.90;;;;;;6173822;23;20372;-90
2022/09/22 12:55:18;;;;;;;1.70;0.93;;;15.50;99.90;;;;;;6174757;23;20056;-90
2022/09/22 12:57:49;;;;;;;1.35;1.08;;;15.30;99.90;;;;;;6176049;23;20449;-90
2022/09/22 13:00:34;;;;;;;3.78;1.30;;;15.30;99.90;;;;;;6178805;23;20009;-90
2022/09/22 13:03:20;;;;;;;2.47;1.15;;;15.30;99.90;;;;;;6177705;23;20028;-91
2022/09/22 13:05:45;;;;;;;;;;;15.20;99.90;;;;;;6174802;23;20005;-92
2022/09/22 13:08:17;;;;;;;3.72;1.52;;;15.10;99.90;;;;;;6176063;22;19963;-92
2022/09/22 13:10:59;;;;;;;1.17;0.90;;;15.00;99.90;;;;;;6179120;23;20012;-92
2022/09/22 13:13:28;;;;;;;4.53;0.73;;;14.90;99.90;;;;;;6177577;23;20001;-90
2022/09/22 13:15:59;;;;;;;3.65;1.05;;;14.90;99.90;;;;;;6178651;23;20013;-91
2022/09/22 13:18:36;;;;;;;1.45;0.98;;;14.80;99.90;;;;;;6176510;23;20088;-92
2022/09/22 13:21:24;;;;;;;2.25;0.80;;;14.70;99.90;;;;;;6178166;23;20449;-89
2022/09/22 13:23:50;;;;;;;2.47;0.98;;;14.80;99.90;;;;;;6175314;23;20005;-91
2022/09/22 13:26:24;;;;;;;3.75;0.70;;;14.90;99.90;;;;;;6177418;23;20027;-92
2022/09/22 13:29:09;;;;;;;1.95;1.17;;;14.90;99.90;;;;;;6176446;23;20001;-91
2022/09/22 13:31:56;;;;;;;0.73;0.73;;;14.90;99.90;;;;;;6179104;23;20020;-92
2022/09/22 13:34:33;;;;;;;1.08;0.73;;;14.90;99.90;;;;;;6178364;23;20008;-90
2022/09/22 13:37:09;;;;;;;3.85;1.15;;;14.90;99.90;;;;;;6178725;23;20446;-93
2022/09/22 13:39:38;;;;;;;1.92;0.98;;;14.90;99.90;;;;;;6177325;23;20002;-89